sensor_id;sensor_type;location;lat;lon;timestamp;temperature;humidity
43949;DHT22;29429;51.074;13.764;2022-11-18T00:01:10;6.80;99.90
43949;DHT22;29429;51.074;13.764;2022-11-18T00:03:40;6.80;99.90
43949;DHT22;29429;51.074;13.764;2022-11-18T00:06:10;6.70;99.90
43949;DHT22;29429;51.074;13.764;2022-11-18T00:08:39;6.60;99.90
43949;DHT22;29429;51.074;13.764;2022-11-18T00:11:08;6.70;99.90
43949;DHT22;29429;51.074;13.764;2022-11-18T00:13:37;6.70;99.90
43949;DHT22;29429;51.074;13.764;2022-11-18T00:16:23;6.80;99.90
43949;DHT22;29429;51.074;13.764;2022-11-18T00:18:50;6.70;99.90
43949;DHT22;29429;51.074;13.764;2022-11-18T00:21:17;6.70;99.90
43949;DHT22;29429;51.074;13.764;2022-11-18T00:23:44;6.70;99.90
43949;DHT22;29429;51.074;13.764;2022-11-18T00:26:14;6.70;99.90
43949;DHT22;29429;51.074;13.764;2022-11-18T00:28:41;6.70;99.90
43949;DHT22;29429;51.074;13.764;2022-11-18T00:31:12;6.70;99.90
43949;DHT22;29429;51.074;13.764;2022-11-18T00:33:39;6.60;99.90
43949;DHT22;29429;51.074;13.764;2022-11-18T00:36:09;6.70;99.90
43949;DHT22;29429;51.074;13.764;2022-11-18T00:38:38;6.70;99.90
43949;DHT22;29429;51.074;13.764;2022-11-18T00:41:08;6.70;99.90
43949;DHT22;29429;51.074;13.764;2022-11-18T00:43:37;6.70;99.90
43949;DHT22;29429;51.074;13.764;2022-11-18T00:46:06;6.70;99.90
43949;DHT22;29429;51.074;13.764;2022-11-18T00:48:35;6.70;99.90
43949;DHT22;29429;51.074;13.764;2022-11-18T00:51:15;6.70;99.90
43949;DHT22;29429;51.074;13.764;2022-11-18T00:53:44;6.70;99.90
43949;DHT22;29429;51.074;13.764;2022-11-18T00:56:10;6.70;99.90
43949;DHT22;29429;51.074;13.764;2022-11-18T00:58:37;6.70;99.90
43949;DHT22;29429;51.074;13.764;2022-11-18T01:01:05;6.70;99.90
43949;DHT22;29429;51.074;13.764;2022-11-18T01:03:32;6.70;99.90
43949;DHT22;29429;51.074;13.764;2022-11-18T01:05:59;6.80;99.90
43949;DHT22;29429;51.074;13.764;2022-11-18T01:08:26;6.70;99.90
43949;DHT22;29429;51.074;13.764;2022-11-18T01:10:53;6.70;99.90
43949;DHT22;29429;51.074;13.764;2022-11-18T01:13:20;6.80;99.90
43949;DHT22;29429;51.074;13.764;2022-11-18T01:15:54;6.70;99.90
43949;DHT22;29429;51.074;13.764;2022-11-18T01:18:29;6.70;99.90
43949;DHT22;29429;51.074;13.764;2022-11-18T01:21:00;6.70;99.90
43949;DHT22;29429;51.074;13.764;2022-11-18T01:23:28;6.70;99.90
43949;DHT22;29429;51.074;13.764;2022-11-18T01:25:55;6.70;99.90
43949;DHT22;29429;51.074;13.764;2022-11-18T01:28:22;6.70;99.90
43949;DHT22;29429;51.074;13.764;2022-11-18T01:30:50;6.70;99.90
43949;DHT22;29429;51.074;13.764;2022-11-18T01:33:17;6.70;99.90
43949;DHT22;29429;51.074;13.764;2022-11-18T01:35:44;6.60;99.90
43949;DHT22;29429;51.074;13.764;2022-11-18T01:38:12;6.60;99.90
43949;DHT22;29429;51.074;13.764;2022-11-18T01:40:40;6.80;99.90
43949;DHT22;29429;51.074;13.764;2022-11-18T01:43:16;6.60;99.90
43949;DHT22;29429;51.074;13.764;2022-11-18T01:45:49;6.60;99.90
43949;DHT22;29429;51.074;13.764;2022-11-18T01:48:25;6.60;99.90
43949;DHT22;29429;51.074;13.764;2022-11-18T01:51:05;6.60;99.90
43949;DHT22;29429;51.074;13.764;2022-11-18T01:53:40;6.60;99.90
43949;DHT22;29429;51.074;13.764;2022-11-18T01:56:15;6.60;99.90
43949;DHT22;29429;51.074;13.764;2022-11-18T01:58:51;6.60;99.90
43949;DHT22;29429;51.074;13.764;2022-11-18T02:01:21;6.60;99.90
43949;DHT22;29429;51.074;13.764;2022-11-18T02:03:49;6.70;99.90
43949;DHT22;29429;51.074;13.764;2022-11-18T02:06:18;6.60;99.90
43949;DHT22;29429;51.074;13.764;2022-11-18T02:08:46;6.70;99.90
43949;DHT22;29429;51.074;13.764;2022-11-18T02:11:15;6.70;99.90
43949;DHT22;29429;51.074;13.764;2022-11-18T02:14:03;6.60;99.90
43949;DHT22;29429;51.074;13.764;2022-11-18T02:33:51;6.70;99.90
43949;DHT22;29429;51.074;13.764;2022-11-18T02:36:28;6.70;99.90
43949;DHT22;29429;51.074;13.764;2022-11-18T02:39:29;6.70;99.90
43949;DHT22;29429;51.074;13.764;2022-11-18T02:42:09;6.70;99.90
43949;DHT22;29429;51.074;13.764;2022-11-18T02:44:42;6.70;99.90
43949;DHT22;29429;51.074;13.764;2022-11-18T02:47:14;6.70;99.90
43949;DHT22;29429;51.074;13.764;2022-11-18T02:49:46;6.70;99.90
43949;DHT22;29429;51.074;13.764;2022-11-18T02:52:17;6.70;99.90
43949;DHT22;29429;51.074;13.764;2022-11-18T02:54:47;6.70;99.90
43949;DHT22;29429;51.074;13.764;2022-11-18T02:57:18;6.70;99.90
43949;DHT22;29429;51.074;13.764;2022-11-18T02:59:47;6.70;99.90
43949;DHT22;29429;51.074;13.764;2022-11-18T03:02:16;6.70;99.90
43949;DHT22;29429;51.074;13.764;2022-11-18T03:04:49;6.70;99.90
43949;DHT22;29429;51.074;13.764;2022-11-18T03:07:29;6.70;99.90
43949;DHT22;29429;51.074;13.764;2022-11-18T03:10:00;6.70;99.90
43949;DHT22;29429;51.074;13.764;2022-11-18T03:15:15;6.70;99.90
43949;DHT22;29429;51.074;13.764;2022-11-18T03:20:44;6.70;99.90
43949;DHT22;29429;51.074;13.764;2022-11-18T03:23:30;6.70;99.90
43949;DHT22;29429;51.074;13.764;2022-11-18T03:26:10;6.70;99.90
43949;DHT22;29429;51.074;13.764;2022-11-18T03:32:13;6.70;99.90
43949;DHT22;29429;51.074;13.764;2022-11-18T03:35:00;6.70;99.90
43949;DHT22;29429;51.074;13.764;2022-11-18T03:37:33;6.60;99.90
43949;DHT22;29429;51.074;13.764;2022-11-18T03:40:23;6.60;99.90
43949;DHT22;29429;51.074;13.764;2022-11-18T03:42:57;6.50;99.90
43949;DHT22;29429;51.074;13.764;2022-11-18T03:45:39;6.50;99.90
43949;DHT22;29429;51.074;13.764;2022-11-18T03:48:33;6.50;99.90
43949;DHT22;29429;51.074;13.764;2022-11-18T03:51:10;6.50;99.90
43949;DHT22;29429;51.074;13.764;2022-11-18T03:53:46;6.50;99.90
43949;DHT22;29429;51.074;13.764;2022-11-18T03:56:39;6.50;99.90
43949;DHT22;29429;51.074;13.764;2022-11-18T03:59:34;6.50;99.90
43949;DHT22;29429;51.074;13.764;2022-11-18T04:02:12;6.50;99.90
43949;DHT22;29429;51.074;13.764;2022-11-18T04:04:45;6.40;99.90
43949;DHT22;29429;51.074;13.764;2022-11-18T04:07:46;6.40;99.90
43949;DHT22;29429;51.074;13.764;2022-11-18T04:10:32;6.40;99.90
43949;DHT22;29429;51.074;13.764;2022-11-18T04:13:05;6.40;99.90
43949;DHT22;29429;51.074;13.764;2022-11-18T04:15:37;6.30;99.90
43949;DHT22;29429;51.074;13.764;2022-11-18T04:18:07;6.30;99.90
43949;DHT22;29429;51.074;13.764;2022-11-18T04:20:35;6.50;99.90
43949;DHT22;29429;51.074;13.764;2022-11-18T04:23:04;6.30;99.90
43949;DHT22;29429;51.074;13.764;2022-11-18T04:25:33;6.30;99.90
43949;DHT22;29429;51.074;13.764;2022-11-18T04:28:01;6.30;99.90
43949;DHT22;29429;51.074;13.764;2022-11-18T04:30:28;6.30;99.90
43949;DHT22;29429;51.074;13.764;2022-11-18T04:32:56;6.30;99.90
43949;DHT22;29429;51.074;13.764;2022-11-18T04:35:24;6.20;99.90
43949;DHT22;29429;51.074;13.764;2022-11-18T04:37:52;6.20;99.90
43949;DHT22;29429;51.074;13.764;2022-11-18T04:40:19;6.10;99.90
43949;DHT22;29429;51.074;13.764;2022-11-18T04:42:46;6.10;99.90
43949;DHT22;29429;51.074;13.764;2022-11-18T04:45:13;6.10;99.90
43949;DHT22;29429;51.074;13.764;2022-11-18T04:47:40;6.20;99.90
43949;DHT22;29429;51.074;13.764;2022-11-18T04:50:07;6.10;99.90
43949;DHT22;29429;51.074;13.764;2022-11-18T04:52:34;6.10;99.90
43949;DHT22;29429;51.074;13.764;2022-11-18T04:55:01;6.10;99.90
43949;DHT22;29429;51.074;13.764;2022-11-18T04:57:28;6.10;99.90
43949;DHT22;29429;51.074;13.764;2022-11-18T04:59:55;6.00;99.90
43949;DHT22;29429;51.074;13.764;2022-11-18T05:02:22;6.10;99.90
43949;DHT22;29429;51.074;13.764;2022-11-18T05:04:49;6.00;99.90
43949;DHT22;29429;51.074;13.764;2022-11-18T05:07:16;6.10;99.90
43949;DHT22;29429;51.074;13.764;2022-11-18T05:09:43;6.00;99.90
43949;DHT22;29429;51.074;13.764;2022-11-18T05:12:11;5.90;99.90
43949;DHT22;29429;51.074;13.764;2022-11-18T05:14:58;5.90;99.90
43949;DHT22;29429;51.074;13.764;2022-11-18T05:17:26;5.90;99.90
43949;DHT22;29429;51.074;13.764;2022-11-18T05:19:53;5.90;99.90
43949;DHT22;29429;51.074;13.764;2022-11-18T05:22:20;5.90;99.90
43949;DHT22;29429;51.074;13.764;2022-11-18T05:24:47;5.90;99.90
43949;DHT22;29429;51.074;13.764;2022-11-18T05:27:15;5.80;99.90
43949;DHT22;29429;51.074;13.764;2022-11-18T05:29:42;5.70;99.90
43949;DHT22;29429;51.074;13.764;2022-11-18T05:32:09;5.80;99.90
43949;DHT22;29429;51.074;13.764;2022-11-18T05:34:37;5.60;99.90
43949;DHT22;29429;51.074;13.764;2022-11-18T05:37:05;5.40;99.90
43949;DHT22;29429;51.074;13.764;2022-11-18T05:39:33;5.40;99.90
43949;DHT22;29429;51.074;13.764;2022-11-18T05:42:00;5.40;99.90
43949;DHT22;29429;51.074;13.764;2022-11-18T05:44:45;5.40;99.90
43949;DHT22;29429;51.074;13.764;2022-11-18T05:47:13;5.40;99.90
43949;DHT22;29429;51.074;13.764;2022-11-18T05:49:40;5.40;99.90
43949;DHT22;29429;51.074;13.764;2022-11-18T05:52:06;5.40;99.90
43949;DHT22;29429;51.074;13.764;2022-11-18T05:54:33;5.40;99.90
43949;DHT22;29429;51.074;13.764;2022-11-18T05:57:03;5.40;99.90
43949;DHT22;29429;51.074;13.764;2022-11-18T05:59:30;5.40;99.90
43949;DHT22;29429;51.074;13.764;2022-11-18T06:02:01;5.50;99.90
43949;DHT22;29429;51.074;13.764;2022-11-18T06:04:36;5.40;99.90
43949;DHT22;29429;51.074;13.764;2022-11-18T06:07:29;5.30;99.90
43949;DHT22;29429;51.074;13.764;2022-11-18T06:10:05;5.20;99.90
43949;DHT22;29429;51.074;13.764;2022-11-18T06:12:37;5.20;99.90
43949;DHT22;29429;51.074;13.764;2022-11-18T06:15:17;5.20;99.90
43949;DHT22;29429;51.074;13.764;2022-11-18T06:20:21;5.10;99.90
43949;DHT22;29429;51.074;13.764;2022-11-18T06:22:51;5.00;99.90
43949;DHT22;29429;51.074;13.764;2022-11-18T06:25:21;5.00;99.90
43949;DHT22;29429;51.074;13.764;2022-11-18T06:27:50;5.10;99.90
43949;DHT22;29429;51.074;13.764;2022-11-18T06:30:19;5.10;99.90
43949;DHT22;29429;51.074;13.764;2022-11-18T06:32:46;5.00;99.90
43949;DHT22;29429;51.074;13.764;2022-11-18T06:35:13;5.00;99.90
43949;DHT22;29429;51.074;13.764;2022-11-18T06:37:40;5.00;99.90
43949;DHT22;29429;51.074;13.764;2022-11-18T06:40:07;5.00;99.90
43949;DHT22;29429;51.074;13.764;2022-11-18T06:42:35;5.00;99.90
43949;DHT22;29429;51.074;13.764;2022-11-18T06:45:20;5.00;99.90
43949;DHT22;29429;51.074;13.764;2022-11-18T06:47:47;5.00;99.90
43949;DHT22;29429;51.074;13.764;2022-11-18T06:50:15;4.90;99.90
43949;DHT22;29429;51.074;13.764;2022-11-18T06:52:42;4.90;99.90
43949;DHT22;29429;51.074;13.764;2022-11-18T06:55:09;4.90;99.90
43949;DHT22;29429;51.074;13.764;2022-11-18T06:57:36;4.90;99.90
43949;DHT22;29429;51.074;13.764;2022-11-18T07:00:03;4.80;99.90
43949;DHT22;29429;51.074;13.764;2022-11-18T07:02:31;4.80;99.90
43949;DHT22;29429;51.074;13.764;2022-11-18T07:04:58;4.80;99.90
43949;DHT22;29429;51.074;13.764;2022-11-18T07:07:25;5.00;99.90
43949;DHT22;29429;51.074;13.764;2022-11-18T07:09:52;4.70;99.90
43949;DHT22;29429;51.074;13.764;2022-11-18T07:12:18;4.70;99.90
43949;DHT22;29429;51.074;13.764;2022-11-18T07:14:46;4.60;99.90
43949;DHT22;29429;51.074;13.764;2022-11-18T07:17:13;4.50;99.90
43949;DHT22;29429;51.074;13.764;2022-11-18T07:19:40;4.50;99.90
43949;DHT22;29429;51.074;13.764;2022-11-18T07:22:07;4.40;99.90
43949;DHT22;29429;51.074;13.764;2022-11-18T07:24:34;4.40;99.90
43949;DHT22;29429;51.074;13.764;2022-11-18T07:27:01;4.40;99.90
43949;DHT22;29429;51.074;13.764;2022-11-18T07:29:28;4.40;99.90
43949;DHT22;29429;51.074;13.764;2022-11-18T07:31:55;4.30;99.90
43949;DHT22;29429;51.074;13.764;2022-11-18T07:34:21;4.30;99.90
43949;DHT22;29429;51.074;13.764;2022-11-18T07:36:48;4.30;99.90
43949;DHT22;29429;51.074;13.764;2022-11-18T07:39:15;4.20;99.90
43949;DHT22;29429;51.074;13.764;2022-11-18T07:41:43;4.10;99.90
43949;DHT22;29429;51.074;13.764;2022-11-18T07:44:12;4.20;99.90
43949;DHT22;29429;51.074;13.764;2022-11-18T07:46:39;4.20;99.90
43949;DHT22;29429;51.074;13.764;2022-11-18T07:49:07;4.20;99.90
43949;DHT22;29429;51.074;13.764;2022-11-18T07:51:37;4.20;99.90
43949;DHT22;29429;51.074;13.764;2022-11-18T07:54:10;4.10;99.90
43949;DHT22;29429;51.074;13.764;2022-11-18T07:56:39;4.10;99.90
43949;DHT22;29429;51.074;13.764;2022-11-18T07:59:06;4.10;99.90
43949;DHT22;29429;51.074;13.764;2022-11-18T08:01:33;4.10;99.90
43949;DHT22;29429;51.074;13.764;2022-11-18T08:04:07;4.10;99.90
43949;DHT22;29429;51.074;13.764;2022-11-18T08:06:36;4.10;99.90
43949;DHT22;29429;51.074;13.764;2022-11-18T08:09:04;4.10;99.90
43949;DHT22;29429;51.074;13.764;2022-11-18T08:11:32;4.10;99.90
43949;DHT22;29429;51.074;13.764;2022-11-18T08:14:00;4.00;99.90
43949;DHT22;29429;51.074;13.764;2022-11-18T08:16:27;4.00;99.90
43949;DHT22;29429;51.074;13.764;2022-11-18T08:18:54;4.10;99.90
43949;DHT22;29429;51.074;13.764;2022-11-18T08:21:23;4.10;99.90
43949;DHT22;29429;51.074;13.764;2022-11-18T08:23:55;4.10;99.90
43949;DHT22;29429;51.074;13.764;2022-11-18T08:26:25;4.10;99.90
43949;DHT22;29429;51.074;13.764;2022-11-18T08:29:02;4.00;99.90
43949;DHT22;29429;51.074;13.764;2022-11-18T08:31:32;4.00;99.90
43949;DHT22;29429;51.074;13.764;2022-11-18T08:34:05;4.10;99.90
43949;DHT22;29429;51.074;13.764;2022-11-18T08:36:35;4.10;99.90
43949;DHT22;29429;51.074;13.764;2022-11-18T08:39:05;4.10;99.90
43949;DHT22;29429;51.074;13.764;2022-11-18T08:41:39;4.00;99.90
43949;DHT22;29429;51.074;13.764;2022-11-18T08:44:10;4.00;99.90
43949;DHT22;29429;51.074;13.764;2022-11-18T08:46:39;4.00;99.90
43949;DHT22;29429;51.074;13.764;2022-11-18T08:49:10;4.10;99.90
43949;DHT22;29429;51.074;13.764;2022-11-18T08:51:41;4.10;99.90
43949;DHT22;29429;51.074;13.764;2022-11-18T08:54:16;4.10;99.90
43949;DHT22;29429;51.074;13.764;2022-11-18T08:56:43;4.00;99.90
43949;DHT22;29429;51.074;13.764;2022-11-18T08:59:10;4.00;99.90
43949;DHT22;29429;51.074;13.764;2022-11-18T09:01:41;3.90;99.90
43949;DHT22;29429;51.074;13.764;2022-11-18T09:04:10;4.00;99.90
43949;DHT22;29429;51.074;13.764;2022-11-18T09:06:37;4.00;99.90
43949;DHT22;29429;51.074;13.764;2022-11-18T09:09:06;4.00;99.90
43949;DHT22;29429;51.074;13.764;2022-11-18T09:11:37;4.00;99.90
43949;DHT22;29429;51.074;13.764;2022-11-18T09:14:05;4.00;99.90
43949;DHT22;29429;51.074;13.764;2022-11-18T09:16:52;3.90;99.90
43949;DHT22;29429;51.074;13.764;2022-11-18T09:19:20;3.80;99.90
43949;DHT22;29429;51.074;13.764;2022-11-18T09:22:08;3.90;99.90
43949;DHT22;29429;51.074;13.764;2022-11-18T09:24:38;3.80;99.90
43949;DHT22;29429;51.074;13.764;2022-11-18T09:27:10;3.90;99.90
43949;DHT22;29429;51.074;13.764;2022-11-18T09:29:43;3.70;99.90
43949;DHT22;29429;51.074;13.764;2022-11-18T09:32:10;3.60;99.90
43949;DHT22;29429;51.074;13.764;2022-11-18T09:34:37;3.60;99.90
43949;DHT22;29429;51.074;13.764;2022-11-18T09:37:05;3.50;99.90
43949;DHT22;29429;51.074;13.764;2022-11-18T09:39:35;3.50;99.90
43949;DHT22;29429;51.074;13.764;2022-11-18T09:47:51;3.50;99.90
43949;DHT22;29429;51.074;13.764;2022-11-18T09:50:22;3.40;99.90
43949;DHT22;29429;51.074;13.764;2022-11-18T09:53:24;3.40;99.90
43949;DHT22;29429;51.074;13.764;2022-11-18T09:55:52;3.40;99.90
43949;DHT22;29429;51.074;13.764;2022-11-18T09:58:33;3.40;99.90
43949;DHT22;29429;51.074;13.764;2022-11-18T10:01:02;3.30;99.90
43949;DHT22;29429;51.074;13.764;2022-11-18T10:03:38;3.30;99.90
43949;DHT22;29429;51.074;13.764;2022-11-18T10:17:58;3.10;99.90
43949;DHT22;29429;51.074;13.764;2022-11-18T10:23:50;2.90;99.90
43949;DHT22;29429;51.074;13.764;2022-11-18T10:26:40;2.80;99.90
43949;DHT22;29429;51.074;13.764;2022-11-18T10:29:07;2.80;99.90
43949;DHT22;29429;51.074;13.764;2022-11-18T10:34:31;2.60;99.90
43949;DHT22;29429;51.074;13.764;2022-11-18T10:40:23;2.60;99.90
43949;DHT22;29429;51.074;13.764;2022-11-18T10:42:52;2.60;99.90
43949;DHT22;29429;51.074;13.764;2022-11-18T10:48:12;2.60;99.90
43949;DHT22;29429;51.074;13.764;2022-11-18T10:50:46;2.60;99.90
43949;DHT22;29429;51.074;13.764;2022-11-18T10:53:35;2.70;99.90
43949;DHT22;29429;51.074;13.764;2022-11-18T10:56:10;2.70;99.90
43949;DHT22;29429;51.074;13.764;2022-11-18T10:59:01;2.70;99.90
43949;DHT22;29429;51.074;13.764;2022-11-18T11:01:37;2.70;99.90
43949;DHT22;29429;51.074;13.764;2022-11-18T11:04:23;2.70;99.90
43949;DHT22;29429;51.074;13.764;2022-11-18T11:06:52;2.70;99.90
43949;DHT22;29429;51.074;13.764;2022-11-18T11:09:26;2.70;99.90
43949;DHT22;29429;51.074;13.764;2022-11-18T11:12:08;2.70;99.90
43949;DHT22;29429;51.074;13.764;2022-11-18T11:14:56;2.80;99.90
43949;DHT22;29429;51.074;13.764;2022-11-18T11:17:39;2.70;99.90
43949;DHT22;29429;51.074;13.764;2022-11-18T11:20:23;2.80;99.90
43949;DHT22;29429;51.074;13.764;2022-11-18T11:22:58;2.70;99.90
43949;DHT22;29429;51.074;13.764;2022-11-18T11:25:32;2.70;99.90
43949;DHT22;29429;51.074;13.764;2022-11-18T11:28:44;2.70;99.90
43949;DHT22;29429;51.074;13.764;2022-11-18T11:31:44;2.60;99.90
43949;DHT22;29429;51.074;13.764;2022-11-18T11:41:10;2.90;99.90
43949;DHT22;29429;51.074;13.764;2022-11-18T11:46:38;3.00;99.90
43949;DHT22;29429;51.074;13.764;2022-11-18T11:49:51;3.00;99.90
43949;DHT22;29429;51.074;13.764;2022-11-18T11:52:37;3.00;99.90
43949;DHT22;29429;51.074;13.764;2022-11-18T12:04:48;3.50;99.90
43949;DHT22;29429;51.074;13.764;2022-11-18T12:07:21;3.50;99.90
43949;DHT22;29429;51.074;13.764;2022-11-18T12:13:38;3.40;99.90
43949;DHT22;29429;51.074;13.764;2022-11-18T12:19:11;3.30;99.90
43949;DHT22;29429;51.074;13.764;2022-11-18T12:29:57;3.00;99.90
43949;DHT22;29429;51.074;13.764;2022-11-18T12:37:46;2.80;99.90
43949;DHT22;29429;51.074;13.764;2022-11-18T12:40:36;2.80;99.90
43949;DHT22;29429;51.074;13.764;2022-11-18T12:48:52;2.80;99.90
43949;DHT22;29429;51.074;13.764;2022-11-18T12:53:51;2.60;99.90
43949;DHT22;29429;51.074;13.764;2022-11-18T12:56:22;2.50;99.90
43949;DHT22;29429;51.074;13.764;2022-11-18T12:58:57;2.50;99.90
43949;DHT22;29429;51.074;13.764;2022-11-18T13:01:28;2.40;99.90
43949;DHT22;29429;51.074;13.764;2022-11-18T13:04:14;2.30;99.90
43949;DHT22;29429;51.074;13.764;2022-11-18T13:06:45;2.20;99.90
43949;DHT22;29429;51.074;13.764;2022-11-18T13:09:19;2.20;99.90
43949;DHT22;29429;51.074;13.764;2022-11-18T13:11:52;2.10;99.90
43949;DHT22;29429;51.074;13.764;2022-11-18T13:17:23;2.10;99.90
43949;DHT22;29429;51.074;13.764;2022-11-18T13:20:24;2.00;99.90
43949;DHT22;29429;51.074;13.764;2022-11-18T13:23:03;1.90;99.90
43949;DHT22;29429;51.074;13.764;2022-11-18T13:26:22;1.90;99.90
43949;DHT22;29429;51.074;13.764;2022-11-18T13:29:04;1.90;99.90
43949;DHT22;29429;51.074;13.764;2022-11-18T13:34:47;1.80;99.90
43949;DHT22;29429;51.074;13.764;2022-11-18T13:37:23;1.80;99.90
43949;DHT22;29429;51.074;13.764;2022-11-18T13:39:51;1.80;99.90
43949;DHT22;29429;51.074;13.764;2022-11-18T13:42:27;1.80;99.90
43949;DHT22;29429;51.074;13.764;2022-11-18T13:45:00;1.70;99.90
43949;DHT22;29429;51.074;13.764;2022-11-18T13:47:44;1.60;99.90
43949;DHT22;29429;51.074;13.764;2022-11-18T14:01:37;1.30;99.90
43949;DHT22;29429;51.074;13.764;2022-11-18T14:04:06;1.40;99.90
43949;DHT22;29429;51.074;13.764;2022-11-18T14:06:41;1.40;99.90
43949;DHT22;29429;51.074;13.764;2022-11-18T14:12:19;1.30;99.90
43949;DHT22;29429;51.074;13.764;2022-11-18T14:14:48;1.30;99.90
43949;DHT22;29429;51.074;13.764;2022-11-18T14:17:25;1.20;99.90
43949;DHT22;29429;51.074;13.764;2022-11-18T14:19:55;1.20;99.90
43949;DHT22;29429;51.074;13.764;2022-11-18T14:22:29;1.10;99.90
43949;DHT22;29429;51.074;13.764;2022-11-18T14:25:02;1.10;99.90
43949;DHT22;29429;51.074;13.764;2022-11-18T14:27:50;1.10;99.90
43949;DHT22;29429;51.074;13.764;2022-11-18T14:30:29;1.10;99.90
43949;DHT22;29429;51.074;13.764;2022-11-18T14:33:26;1.20;99.90
43949;DHT22;29429;51.074;13.764;2022-11-18T14:38:42;1.20;99.90
43949;DHT22;29429;51.074;13.764;2022-11-18T14:41:37;1.10;99.90
43949;DHT22;29429;51.074;13.764;2022-11-18T14:44:13;1.20;99.90
43949;DHT22;29429;51.074;13.764;2022-11-18T14:46:54;1.30;99.90
43949;DHT22;29429;51.074;13.764;2022-11-18T14:49:25;1.30;99.90
43949;DHT22;29429;51.074;13.764;2022-11-18T14:51:55;1.40;99.90
43949;DHT22;29429;51.074;13.764;2022-11-18T14:54:24;1.40;99.90
43949;DHT22;29429;51.074;13.764;2022-11-18T14:56:57;1.40;99.90
43949;DHT22;29429;51.074;13.764;2022-11-18T14:59:27;1.30;99.90
43949;DHT22;29429;51.074;13.764;2022-11-18T15:01:56;1.40;99.90
43949;DHT22;29429;51.074;13.764;2022-11-18T15:04:24;1.30;99.90
43949;DHT22;29429;51.074;13.764;2022-11-18T15:06:51;1.60;99.90
43949;DHT22;29429;51.074;13.764;2022-11-18T15:09:19;1.20;99.90
43949;DHT22;29429;51.074;13.764;2022-11-18T15:11:46;1.40;99.90
43949;DHT22;29429;51.074;13.764;2022-11-18T15:55:26;1.20;99.90
43949;DHT22;29429;51.074;13.764;2022-11-18T15:57:53;1.30;99.90
43949;DHT22;29429;51.074;13.764;2022-11-18T16:00:20;1.30;99.90
43949;DHT22;29429;51.074;13.764;2022-11-18T16:02:47;1.30;99.90
43949;DHT22;29429;51.074;13.764;2022-11-18T16:05:14;1.40;99.90
43949;DHT22;29429;51.074;13.764;2022-11-18T16:07:41;1.40;99.90
43949;DHT22;29429;51.074;13.764;2022-11-18T16:10:08;1.40;99.90
43949;DHT22;29429;51.074;13.764;2022-11-18T16:12:54;1.40;99.90
43949;DHT22;29429;51.074;13.764;2022-11-18T16:15:21;1.40;99.90
43949;DHT22;29429;51.074;13.764;2022-11-18T16:18:06;1.40;99.90
43949;DHT22;29429;51.074;13.764;2022-11-18T16:20:34;1.40;99.90
43949;DHT22;29429;51.074;13.764;2022-11-18T16:23:01;1.30;99.90
43949;DHT22;29429;51.074;13.764;2022-11-18T16:26:12;1.30;99.90
43949;DHT22;29429;51.074;13.764;2022-11-18T16:28:43;1.30;99.90
43949;DHT22;29429;51.074;13.764;2022-11-18T16:31:10;1.30;99.90
43949;DHT22;29429;51.074;13.764;2022-11-18T16:33:56;1.50;99.90
43949;DHT22;29429;51.074;13.764;2022-11-18T16:36:42;1.40;99.90
43949;DHT22;29429;51.074;13.764;2022-11-18T16:40:14;1.30;99.90
43949;DHT22;29429;51.074;13.764;2022-11-18T16:42:51;1.00;99.90
43949;DHT22;29429;51.074;13.764;2022-11-18T16:45:18;1.20;99.90
43949;DHT22;29429;51.074;13.764;2022-11-18T16:47:53;1.40;99.90
43949;DHT22;29429;51.074;13.764;2022-11-18T16:50:52;1.60;99.90
43949;DHT22;29429;51.074;13.764;2022-11-18T16:56:33;1.10;99.90
43949;DHT22;29429;51.074;13.764;2022-11-18T16:59:05;1.20;99.90
43949;DHT22;29429;51.074;13.764;2022-11-18T17:01:36;1.30;99.90
43949;DHT22;29429;51.074;13.764;2022-11-18T17:04:03;1.30;99.90
43949;DHT22;29429;51.074;13.764;2022-11-18T17:06:31;1.10;99.90
43949;DHT22;29429;51.074;13.764;2022-11-18T17:08:58;1.20;99.90
43949;DHT22;29429;51.074;13.764;2022-11-18T17:11:26;1.10;99.90
43949;DHT22;29429;51.074;13.764;2022-11-18T17:13:53;1.10;99.90
43949;DHT22;29429;51.074;13.764;2022-11-18T17:16:24;1.00;99.90
43949;DHT22;29429;51.074;13.764;2022-11-18T17:18:54;1.00;99.90
43949;DHT22;29429;51.074;13.764;2022-11-18T17:21:23;0.90;99.90
43949;DHT22;29429;51.074;13.764;2022-11-18T17:23:52;0.90;99.90
43949;DHT22;29429;51.074;13.764;2022-11-18T17:26:26;0.80;99.90
43949;DHT22;29429;51.074;13.764;2022-11-18T17:28:54;0.80;99.90
43949;DHT22;29429;51.074;13.764;2022-11-18T17:31:23;0.80;99.90
43949;DHT22;29429;51.074;13.764;2022-11-18T17:33:52;0.70;99.90
43949;DHT22;29429;51.074;13.764;2022-11-18T17:36:25;0.70;99.90
43949;DHT22;29429;51.074;13.764;2022-11-18T17:38:55;0.60;99.90
43949;DHT22;29429;51.074;13.764;2022-11-18T17:41:28;0.60;99.90
43949;DHT22;29429;51.074;13.764;2022-11-18T17:44:14;0.60;99.90
43949;DHT22;29429;51.074;13.764;2022-11-18T17:46:43;0.60;99.90
43949;DHT22;29429;51.074;13.764;2022-11-18T17:49:15;0.80;99.90
43949;DHT22;29429;51.074;13.764;2022-11-18T17:51:50;0.70;99.90
43949;DHT22;29429;51.074;13.764;2022-11-18T17:54:22;0.70;99.90
43949;DHT22;29429;51.074;13.764;2022-11-18T17:57:02;0.70;99.90
43949;DHT22;29429;51.074;13.764;2022-11-18T18:03:17;0.40;99.90
43949;DHT22;29429;51.074;13.764;2022-11-18T18:05:45;0.80;99.90
43949;DHT22;29429;51.074;13.764;2022-11-18T18:08:13;0.70;99.90
43949;DHT22;29429;51.074;13.764;2022-11-18T18:10:40;0.70;99.90
43949;DHT22;29429;51.074;13.764;2022-11-18T18:13:08;0.60;99.90
43949;DHT22;29429;51.074;13.764;2022-11-18T18:15:58;0.60;99.90
43949;DHT22;29429;51.074;13.764;2022-11-18T18:18:27;0.50;99.90
43949;DHT22;29429;51.074;13.764;2022-11-18T18:20:55;0.60;99.90
43949;DHT22;29429;51.074;13.764;2022-11-18T18:23:26;0.60;99.90
43949;DHT22;29429;51.074;13.764;2022-11-18T18:25:54;0.10;99.90
43949;DHT22;29429;51.074;13.764;2022-11-18T18:28:21;0.60;99.90
43949;DHT22;29429;51.074;13.764;2022-11-18T18:30:59;0.70;99.90
43949;DHT22;29429;51.074;13.764;2022-11-18T18:33:28;0.70;99.90
43949;DHT22;29429;51.074;13.764;2022-11-18T18:35:59;0.70;99.90
43949;DHT22;29429;51.074;13.764;2022-11-18T18:38:31;0.60;99.90
43949;DHT22;29429;51.074;13.764;2022-11-18T18:41:07;0.60;99.90
43949;DHT22;29429;51.074;13.764;2022-11-18T18:43:36;0.60;99.90
43949;DHT22;29429;51.074;13.764;2022-11-18T18:46:06;0.60;99.90
43949;DHT22;29429;51.074;13.764;2022-11-18T18:51:36;0.40;99.90
43949;DHT22;29429;51.074;13.764;2022-11-18T18:54:06;0.50;99.90
43949;DHT22;29429;51.074;13.764;2022-11-18T18:56:36;0.60;99.90
43949;DHT22;29429;51.074;13.764;2022-11-18T18:59:07;0.40;99.90
43949;DHT22;29429;51.074;13.764;2022-11-18T19:01:35;0.30;99.90
43949;DHT22;29429;51.074;13.764;2022-11-18T19:04:05;0.30;99.90
43949;DHT22;29429;51.074;13.764;2022-11-18T19:06:34;0.30;99.90